sensor_id;sensor_type;location;lat;lon;timestamp;pressure;altitude;pressure_sealevel;temperature;humidity
11053;BME280;55230;42.602;23.470;2022-08-03T00:01:33;93396.09;;;16.81;73.55
11053;BME280;55230;42.602;23.470;2022-08-03T00:04:00;93535.50;;;17.75;74.00
11053;BME280;55230;42.602;23.470;2022-08-03T00:06:27;93591.66;;;18.09;73.85
11053;BME280;55230;42.602;23.470;2022-08-03T00:08:54;93512.16;;;17.63;73.51
11053;BME280;55230;42.602;23.470;2022-08-03T00:11:22;93600.38;;;18.18;73.74
11053;BME280;55230;42.602;23.470;2022-08-03T00:13:49;93580.78;;;18.20;73.10
11053;BME280;55230;42.602;23.470;2022-08-03T00:16:16;93610.56;;;18.23;72.75
11053;BME280;55230;42.602;23.470;2022-08-03T00:18:43;93487.00;;;17.37;73.24
11053;BME280;55230;42.602;23.470;2022-08-03T00:21:10;93551.44;;;17.87;72.78
11053;BME280;55230;42.602;23.470;2022-08-03T00:23:37;93591.97;;;18.22;72.82
11053;BME280;55230;42.602;23.470;2022-08-03T00:26:04;93587.72;;;18.21;72.75
11053;BME280;55230;42.602;23.470;2022-08-03T00:28:32;93533.56;;;17.81;73.11
11053;BME280;55230;42.602;23.470;2022-08-03T00:30:59;93584.00;;;18.13;73.54
11053;BME280;55230;42.602;23.470;2022-08-03T00:33:26;93436.34;;;17.02;74.07
11053;BME280;55230;42.602;23.470;2022-08-03T00:35:53;93567.00;;;17.76;73.95
11053;BME280;55230;42.602;23.470;2022-08-03T00:38:20;93510.91;;;17.53;74.07
11053;BME280;55230;42.602;23.470;2022-08-03T00:40:46;93576.03;;;18.04;74.09
11053;BME280;55230;42.602;23.470;2022-08-03T00:43:13;93219.28;;;15.49;73.66
11053;BME280;55230;42.602;23.470;2022-08-03T00:45:42;93522.31;;;17.57;73.51
11053;BME280;55230;42.602;23.470;2022-08-03T00:48:10;93225.50;;;15.60;73.99
11053;BME280;55230;42.602;23.470;2022-08-03T00:50:39;93572.75;;;17.89;74.71
11053;BME280;55230;42.602;23.470;2022-08-03T00:53:09;93478.75;;;17.14;75.21
11053;BME280;55230;42.602;23.470;2022-08-03T00:55:38;93572.75;;;17.89;75.44
11053;BME280;55230;42.602;23.470;2022-08-03T00:58:05;93566.78;;;17.85;75.81
11053;BME280;55230;42.602;23.470;2022-08-03T01:00:33;93477.00;;;17.11;76.24
11053;BME280;55230;42.602;23.470;2022-08-03T01:03:05;93565.78;;;17.77;76.75
11053;BME280;55230;42.602;23.470;2022-08-03T01:05:39;93561.06;;;17.77;76.28
11053;BME280;55230;42.602;23.470;2022-08-03T01:08:17;93566.47;;;17.66;76.52
11053;BME280;55230;42.602;23.470;2022-08-03T01:10:52;93574.91;;;17.68;76.11
11053;BME280;55230;42.602;23.470;2022-08-03T01:13:25;93557.03;;;17.67;76.73
11053;BME280;55230;42.602;23.470;2022-08-03T01:15:59;93149.91;;;14.85;77.04
11053;BME280;55230;42.602;23.470;2022-08-03T01:18:33;93481.59;;;16.89;77.36
11053;BME280;55230;42.602;23.470;2022-08-03T01:21:07;93216.72;;;15.08;77.20
11053;BME280;55230;42.602;23.470;2022-08-03T01:23:48;93564.66;;;17.47;78.63
11053;BME280;55230;42.602;23.470;2022-08-03T01:26:47;93519.31;;;17.01;80.47
11053;BME280;55230;42.602;23.470;2022-08-03T01:29:55;93533.69;;;17.07;80.45
11053;BME280;55230;42.602;23.470;2022-08-03T01:32:27;93121.19;;;14.22;80.61
11053;BME280;55230;42.602;23.470;2022-08-03T01:35:00;93511.50;;;16.83;82.10
11053;BME280;55230;42.602;23.470;2022-08-03T01:37:34;93553.78;;;17.15;82.49
11053;BME280;55230;42.602;23.470;2022-08-03T01:40:04;93513.19;;;16.75;83.07
11053;BME280;55230;42.602;23.470;2022-08-03T01:42:32;93362.75;;;15.45;83.72
11053;BME280;55230;42.602;23.470;2022-08-03T01:45:03;93460.84;;;16.29;84.41
11053;BME280;55230;42.602;23.470;2022-08-03T01:47:31;93562.00;;;16.84;84.42
11053;BME280;55230;42.602;23.470;2022-08-03T01:50:00;93411.97;;;15.78;84.21
11053;BME280;55230;42.602;23.470;2022-08-03T01:52:29;93559.28;;;16.84;84.52
11053;BME280;55230;42.602;23.470;2022-08-03T01:54:58;93555.75;;;16.73;85.28
11053;BME280;55230;42.602;23.470;2022-08-03T01:57:27;93488.53;;;16.22;84.91
11053;BME280;55230;42.602;23.470;2022-08-03T01:59:56;93422.22;;;15.88;84.58
11053;BME280;55230;42.602;23.470;2022-08-03T02:02:27;93563.44;;;16.74;84.90
11053;BME280;55230;42.602;23.470;2022-08-03T02:04:55;93495.88;;;16.16;84.79
11053;BME280;55230;42.602;23.470;2022-08-03T02:07:23;93519.81;;;16.38;85.18
11053;BME280;55230;42.602;23.470;2022-08-03T02:09:52;93525.66;;;16.25;85.65
11053;BME280;55230;42.602;23.470;2022-08-03T02:12:21;93053.69;;;13.13;85.13
11053;BME280;55230;42.602;23.470;2022-08-03T02:14:49;93558.66;;;16.64;85.77
11053;BME280;55230;42.602;23.470;2022-08-03T02:17:17;93390.63;;;15.40;86.09
11053;BME280;55230;42.602;23.470;2022-08-03T02:19:46;93620.00;;;16.59;86.06
11053;BME280;55230;42.602;23.470;2022-08-03T02:22:14;93554.66;;;16.59;86.10
11053;BME280;55230;42.602;23.470;2022-08-03T02:24:41;93558.09;;;16.54;86.86
11053;BME280;55230;42.602;23.470;2022-08-03T02:27:12;93551.84;;;16.48;87.10
11053;BME280;55230;42.602;23.470;2022-08-03T02:29:45;93582.09;;;16.30;87.09
11053;BME280;55230;42.602;23.470;2022-08-03T02:32:17;93559.47;;;16.44;87.18
11053;BME280;55230;42.602;23.470;2022-08-03T02:34:50;93553.84;;;16.22;89.00
11053;BME280;55230;42.602;23.470;2022-08-03T02:37:19;93498.84;;;15.87;87.67
11053;BME280;55230;42.602;23.470;2022-08-03T02:39:48;93441.84;;;15.47;88.03
11053;BME280;55230;42.602;23.470;2022-08-03T02:42:20;93565.06;;;16.35;87.26
11053;BME280;55230;42.602;23.470;2022-08-03T02:44:49;93486.50;;;15.91;86.58
11053;BME280;55230;42.602;23.470;2022-08-03T02:47:18;93567.63;;;16.44;86.96
11053;BME280;55230;42.602;23.470;2022-08-03T02:49:48;93558.19;;;16.40;87.19
11053;BME280;55230;42.602;23.470;2022-08-03T02:52:16;93555.19;;;16.38;87.36
11053;BME280;55230;42.602;23.470;2022-08-03T02:54:45;93554.47;;;16.37;87.57
11053;BME280;55230;42.602;23.470;2022-08-03T02:57:14;93428.25;;;15.47;87.36
11053;BME280;55230;42.602;23.470;2022-08-03T02:59:44;93555.63;;;16.31;88.08
11053;BME280;55230;42.602;23.470;2022-08-03T03:02:13;93559.91;;;16.37;87.23
11053;BME280;55230;42.602;23.470;2022-08-03T03:04:42;93571.22;;;16.30;87.86
11053;BME280;55230;42.602;23.470;2022-08-03T03:07:11;93467.63;;;15.57;87.82
11053;BME280;55230;42.602;23.470;2022-08-03T03:09:39;93573.66;;;16.28;88.51
11053;BME280;55230;42.602;23.470;2022-08-03T03:12:07;93287.84;;;14.21;86.55
11053;BME280;55230;42.602;23.470;2022-08-03T03:14:35;93575.53;;;16.42;86.74
11053;BME280;55230;42.602;23.470;2022-08-03T03:17:03;93576.09;;;16.46;86.50
11053;BME280;55230;42.602;23.470;2022-08-03T03:19:32;93582.81;;;16.51;86.60
11053;BME280;55230;42.602;23.470;2022-08-03T03:22:00;93587.34;;;16.59;86.12
11053;BME280;55230;42.602;23.470;2022-08-03T03:24:29;93586.84;;;16.61;86.07
11053;BME280;55230;42.602;23.470;2022-08-03T03:26:57;93480.34;;;15.91;85.70
11053;BME280;55230;42.602;23.470;2022-08-03T03:29:23;93533.13;;;16.30;85.76
11053;BME280;55230;42.602;23.470;2022-08-03T03:31:51;93528.22;;;16.34;85.83
11053;BME280;55230;42.602;23.470;2022-08-03T03:34:18;93481.81;;;15.92;86.16
11053;BME280;55230;42.602;23.470;2022-08-03T03:36:46;93228.06;;;14.30;86.40
11053;BME280;55230;42.602;23.470;2022-08-03T03:39:13;93576.88;;;16.83;86.58
11053;BME280;55230;42.602;23.470;2022-08-03T03:41:41;93439.09;;;15.98;86.84
11053;BME280;55230;42.602;23.470;2022-08-03T03:44:09;93088.47;;;13.80;84.89
11053;BME280;55230;42.602;23.470;2022-08-03T03:46:36;93578.63;;;17.71;83.65
11053;BME280;55230;42.602;23.470;2022-08-03T03:49:04;93380.31;;;16.90;80.51
11053;BME280;55230;42.602;23.470;2022-08-03T03:51:31;93591.06;;;18.80;77.83
11053;BME280;55230;42.602;23.470;2022-08-03T03:53:59;93587.06;;;18.65;78.11
11053;BME280;55230;42.602;23.470;2022-08-03T03:56:27;93573.59;;;18.33;76.10
11053;BME280;55230;42.602;23.470;2022-08-03T03:58:55;93603.44;;;19.42;74.35
11053;BME280;55230;42.602;23.470;2022-08-03T04:01:22;93598.97;;;20.13;71.18
11053;BME280;55230;42.602;23.470;2022-08-03T04:03:50;93560.41;;;20.57;66.55
11053;BME280;55230;42.602;23.470;2022-08-03T04:06:17;93564.44;;;20.45;65.35
11053;BME280;55230;42.602;23.470;2022-08-03T04:09:02;93527.69;;;20.64;64.10
11053;BME280;55230;42.602;23.470;2022-08-03T04:11:50;93423.91;;;20.80;61.20
11053;BME280;55230;42.602;23.470;2022-08-03T04:14:22;93601.81;;;22.52;59.24
11053;BME280;55230;42.602;23.470;2022-08-03T04:16:54;93601.94;;;22.04;62.89
11053;BME280;55230;42.602;23.470;2022-08-03T04:19:26;93498.81;;;20.93;61.39
11053;BME280;55230;42.602;23.470;2022-08-03T04:21:59;93530.09;;;20.03;64.63
11053;BME280;55230;42.602;23.470;2022-08-03T04:24:32;93563.41;;;20.83;64.59
11053;BME280;55230;42.602;23.470;2022-08-03T04:27:02;93576.88;;;21.89;60.64
11053;BME280;55230;42.602;23.470;2022-08-03T04:29:32;93275.84;;;20.66;57.97
11053;BME280;55230;42.602;23.470;2022-08-03T04:32:00;93610.78;;;23.66;54.74
11053;BME280;55230;42.602;23.470;2022-08-03T04:34:27;93611.44;;;24.24;51.47
11053;BME280;55230;42.602;23.470;2022-08-03T04:36:59;93533.25;;;23.62;51.55
11053;BME280;55230;42.602;23.470;2022-08-03T04:39:29;93351.75;;;21.89;53.34
11053;BME280;55230;42.602;23.470;2022-08-03T04:42:00;93548.13;;;22.14;58.37
11053;BME280;55230;42.602;23.470;2022-08-03T04:44:39;93630.72;;;22.77;57.00
11053;BME280;55230;42.602;23.470;2022-08-03T04:47:17;93256.13;;;19.72;59.61
11053;BME280;55230;42.602;23.470;2022-08-03T04:49:46;93583.09;;;22.13;59.34
11053;BME280;55230;42.602;23.470;2022-08-03T04:52:17;93586.44;;;22.62;58.16
11053;BME280;55230;42.602;23.470;2022-08-03T04:54:48;93236.06;;;19.28;59.39
11053;BME280;55230;42.602;23.470;2022-08-03T04:57:15;93654.56;;;21.84;61.68
11053;BME280;55230;42.602;23.470;2022-08-03T04:59:46;93635.97;;;22.38;62.33
11053;BME280;55230;42.602;23.470;2022-08-03T05:02:13;93634.97;;;22.17;63.61
11053;BME280;55230;42.602;23.470;2022-08-03T05:04:40;93368.31;;;20.07;63.75
11053;BME280;55230;42.602;23.470;2022-08-03T05:07:19;93240.56;;;18.91;62.15
11053;BME280;55230;42.602;23.470;2022-08-03T05:09:47;93635.34;;;21.00;67.24
11053;BME280;55230;42.602;23.470;2022-08-03T05:12:13;93638.16;;;20.48;70.56
11053;BME280;55230;42.602;23.470;2022-08-03T05:14:43;93147.31;;;16.56;72.99
11053;BME280;55230;42.602;23.470;2022-08-03T05:17:14;93651.25;;;20.15;71.56
11053;BME280;55230;42.602;23.470;2022-08-03T05:19:41;93500.47;;;19.50;70.21
11053;BME280;55230;42.602;23.470;2022-08-03T05:22:08;93645.88;;;20.85;69.55
11053;BME280;55230;42.602;23.470;2022-08-03T05:24:35;93657.19;;;21.11;70.25
11053;BME280;55230;42.602;23.470;2022-08-03T05:27:07;93392.00;;;19.12;67.12
11053;BME280;55230;42.602;23.470;2022-08-03T05:29:44;93649.56;;;20.99;67.65
11053;BME280;55230;42.602;23.470;2022-08-03T05:32:12;93424.31;;;19.02;68.32
11053;BME280;55230;42.602;23.470;2022-08-03T05:34:39;93666.69;;;21.40;66.47
11053;BME280;55230;42.602;23.470;2022-08-03T05:37:06;93656.66;;;21.18;66.32
11053;BME280;55230;42.602;23.470;2022-08-03T05:39:39;93315.75;;;19.03;68.00
11053;BME280;55230;42.602;23.470;2022-08-03T05:42:17;93430.34;;;19.52;68.54
11053;BME280;55230;42.602;23.470;2022-08-03T05:44:44;93636.72;;;20.83;68.41
11053;BME280;55230;42.602;23.470;2022-08-03T05:47:16;93272.69;;;18.68;68.24
11053;BME280;55230;42.602;23.470;2022-08-03T05:49:45;93658.66;;;21.71;66.69
11053;BME280;55230;42.602;23.470;2022-08-03T05:52:11;93666.13;;;22.01;65.02
11053;BME280;55230;42.602;23.470;2022-08-03T05:54:41;93374.25;;;20.05;64.25
11053;BME280;55230;42.602;23.470;2022-08-03T05:57:08;93678.38;;;22.00;64.77
11053;BME280;55230;42.602;23.470;2022-08-03T05:59:37;93411.97;;;20.53;64.10
11053;BME280;55230;42.602;23.470;2022-08-03T06:02:07;93608.00;;;21.97;63.67
11053;BME280;55230;42.602;23.470;2022-08-03T06:04:41;93698.69;;;22.76;63.16
11053;BME280;55230;42.602;23.470;2022-08-03T06:07:11;93656.97;;;21.93;64.05
11053;BME280;55230;42.602;23.470;2022-08-03T06:09:43;93664.19;;;21.42;66.20
11053;BME280;55230;42.602;23.470;2022-08-03T06:12:12;93687.41;;;21.95;65.78
11053;BME280;55230;42.602;23.470;2022-08-03T06:14:38;93684.97;;;22.34;63.41
11053;BME280;55230;42.602;23.470;2022-08-03T06:17:05;93623.50;;;21.94;62.99
11053;BME280;55230;42.602;23.470;2022-08-03T06:19:32;93648.47;;;21.96;63.14
11053;BME280;55230;42.602;23.470;2022-08-03T06:22:00;93754.13;;;22.62;62.68
11053;BME280;55230;42.602;23.470;2022-08-03T06:24:27;93659.06;;;23.04;60.17
11053;BME280;55230;42.602;23.470;2022-08-03T06:27:09;93677.69;;;24.19;55.75
11053;BME280;55230;42.602;23.470;2022-08-03T06:29:36;93738.03;;;23.90;56.61
11053;BME280;55230;42.602;23.470;2022-08-03T06:32:04;93163.94;;;20.52;58.73
11053;BME280;55230;42.602;23.470;2022-08-03T06:34:39;93274.44;;;20.79;57.40
11053;BME280;55230;42.602;23.470;2022-08-03T06:37:11;93708.28;;;23.07;60.70
11053;BME280;55230;42.602;23.470;2022-08-03T06:39:37;93630.03;;;23.21;58.71
11053;BME280;55230;42.602;23.470;2022-08-03T06:42:04;93678.44;;;23.30;59.30
11053;BME280;55230;42.602;23.470;2022-08-03T06:44:31;93276.41;;;20.17;58.29
11053;BME280;55230;42.602;23.470;2022-08-03T06:46:58;93674.34;;;23.36;60.79
11053;BME280;55230;42.602;23.470;2022-08-03T06:49:25;93395.59;;;21.20;60.49
11053;BME280;55230;42.602;23.470;2022-08-03T06:51:52;93680.59;;;22.86;60.33
11053;BME280;55230;42.602;23.470;2022-08-03T06:54:20;93681.38;;;22.81;61.63
11053;BME280;55230;42.602;23.470;2022-08-03T06:56:48;93657.69;;;22.60;61.13
11053;BME280;55230;42.602;23.470;2022-08-03T06:59:15;93677.44;;;23.14;61.42
11053;BME280;55230;42.602;23.470;2022-08-03T07:01:42;93616.22;;;22.39;60.38
11053;BME280;55230;42.602;23.470;2022-08-03T07:04:09;93675.22;;;22.75;62.43
11053;BME280;55230;42.602;23.470;2022-08-03T07:06:36;93664.38;;;22.83;60.54
11053;BME280;55230;42.602;23.470;2022-08-03T07:09:03;93617.56;;;22.70;59.06
11053;BME280;55230;42.602;23.470;2022-08-03T07:11:31;93629.84;;;22.69;59.21
11053;BME280;55230;42.602;23.470;2022-08-03T07:13:58;93653.38;;;23.33;58.92
11053;BME280;55230;42.602;23.470;2022-08-03T07:16:25;93683.41;;;24.21;58.54
11053;BME280;55230;42.602;23.470;2022-08-03T07:18:51;93679.59;;;24.24;57.57
11053;BME280;55230;42.602;23.470;2022-08-03T07:21:18;93671.81;;;24.61;52.89
11053;BME280;55230;42.602;23.470;2022-08-03T07:23:45;93725.91;;;24.51;54.07
11053;BME280;55230;42.602;23.470;2022-08-03T07:26:12;93505.53;;;23.02;56.32
11053;BME280;55230;42.602;23.470;2022-08-03T07:28:41;93240.06;;;21.33;53.62
11053;BME280;55230;42.602;23.470;2022-08-03T07:31:08;93607.81;;;23.77;54.02
11053;BME280;55230;42.602;23.470;2022-08-03T07:33:38;93060.59;;;20.15;54.54
11053;BME280;55230;42.602;23.470;2022-08-03T07:36:04;93425.91;;;22.20;54.06
11053;BME280;55230;42.602;23.470;2022-08-03T07:38:47;93373.97;;;22.35;54.75
11053;BME280;55230;42.602;23.470;2022-08-03T07:41:22;93136.25;;;21.24;52.90
11053;BME280;55230;42.602;23.470;2022-08-03T07:43:55;93693.28;;;25.02;49.28
11053;BME280;55230;42.602;23.470;2022-08-03T07:46:23;93572.53;;;23.88;51.46
11053;BME280;55230;42.602;23.470;2022-08-03T07:48:50;93671.53;;;24.26;51.97
11053;BME280;55230;42.602;23.470;2022-08-03T07:51:17;93589.25;;;23.64;51.80
11053;BME280;55230;42.602;23.470;2022-08-03T07:53:44;93535.59;;;23.45;49.66
11053;BME280;55230;42.602;23.470;2022-08-03T07:56:11;93480.19;;;23.22;49.19
11053;BME280;55230;42.602;23.470;2022-08-03T07:58:37;93722.19;;;24.62;48.08
11053;BME280;55230;42.602;23.470;2022-08-03T08:01:06;93178.00;;;21.17;49.10
11053;BME280;55230;42.602;23.470;2022-08-03T08:03:33;93694.09;;;24.37;48.98
11053;BME280;55230;42.602;23.470;2022-08-03T08:06:02;93589.72;;;24.08;50.06
11053;BME280;55230;42.602;23.470;2022-08-03T08:08:32;93691.75;;;24.67;50.81
11053;BME280;55230;42.602;23.470;2022-08-03T08:11:01;93608.34;;;24.28;48.23
11053;BME280;55230;42.602;23.470;2022-08-03T08:13:28;93653.44;;;24.77;47.35
11053;BME280;55230;42.602;23.470;2022-08-03T08:15:59;93680.78;;;25.55;50.33
11053;BME280;55230;42.602;23.470;2022-08-03T08:18:29;93147.06;;;21.61;45.78
11053;BME280;55230;42.602;23.470;2022-08-03T08:20:57;93653.88;;;24.81;45.34
11053;BME280;55230;42.602;23.470;2022-08-03T08:23:25;93615.25;;;24.81;45.15
11053;BME280;55230;42.602;23.470;2022-08-03T08:25:53;93698.91;;;25.30;46.38
11053;BME280;55230;42.602;23.470;2022-08-03T08:28:20;93654.03;;;24.96;45.94
11053;BME280;55230;42.602;23.470;2022-08-03T08:30:48;93696.13;;;25.84;46.09
11053;BME280;55230;42.602;23.470;2022-08-03T08:33:15;93677.19;;;25.88;48.04
11053;BME280;55230;42.602;23.470;2022-08-03T08:35:43;93697.75;;;26.29;44.53
11053;BME280;55230;42.602;23.470;2022-08-03T08:38:10;93714.44;;;26.44;44.82
11053;BME280;55230;42.602;23.470;2022-08-03T08:40:37;93692.91;;;26.50;43.97
11053;BME280;55230;42.602;23.470;2022-08-03T08:43:04;93699.59;;;26.62;43.53
11053;BME280;55230;42.602;23.470;2022-08-03T08:45:32;93695.84;;;26.52;43.90
11053;BME280;55230;42.602;23.470;2022-08-03T08:48:01;93565.56;;;25.63;43.42
11053;BME280;55230;42.602;23.470;2022-08-03T08:50:28;93706.34;;;26.17;43.41
11053;BME280;55230;42.602;23.470;2022-08-03T08:53:00;93607.78;;;25.30;43.35
11053;BME280;55230;42.602;23.470;2022-08-03T08:55:28;93524.94;;;24.61;43.72
11053;BME280;55230;42.602;23.470;2022-08-03T08:57:59;93692.00;;;26.27;44.99
11053;BME280;55230;42.602;23.470;2022-08-03T09:00:27;93629.22;;;26.06;44.45
11053;BME280;55230;42.602;23.470;2022-08-03T09:02:55;93687.41;;;26.93;43.35
11053;BME280;55230;42.602;23.470;2022-08-03T09:05:24;93610.19;;;25.95;41.68
11053;BME280;55230;42.602;23.470;2022-08-03T09:07:51;93702.09;;;26.73;41.04
11053;BME280;55230;42.602;23.470;2022-08-03T09:10:19;93672.81;;;26.85;40.81
11053;BME280;55230;42.602;23.470;2022-08-03T09:12:49;93690.91;;;27.52;39.53
11053;BME280;55230;42.602;23.470;2022-08-03T09:15:18;93688.19;;;27.97;40.64
11053;BME280;55230;42.602;23.470;2022-08-03T09:17:46;93658.97;;;27.81;40.33
11053;BME280;55230;42.602;23.470;2022-08-03T09:20:13;93554.16;;;26.31;39.93
11053;BME280;55230;42.602;23.470;2022-08-03T09:22:54;93690.34;;;27.53;38.74
11053;BME280;55230;42.602;23.470;2022-08-03T09:25:31;93695.94;;;27.83;39.99
11053;BME280;55230;42.602;23.470;2022-08-03T09:28:07;93688.34;;;28.06;39.55
11053;BME280;55230;42.602;23.470;2022-08-03T09:30:35;93649.72;;;27.63;39.23
11053;BME280;55230;42.602;23.470;2022-08-03T09:33:03;93710.88;;;28.48;40.01
11053;BME280;55230;42.602;23.470;2022-08-03T09:35:31;93679.53;;;28.78;38.45
11053;BME280;55230;42.602;23.470;2022-08-03T09:38:09;93630.16;;;28.69;37.33
11053;BME280;55230;42.602;23.470;2022-08-03T09:40:41;93691.06;;;29.21;36.30
11053;BME280;55230;42.602;23.470;2022-08-03T09:43:09;93674.34;;;28.82;36.51
11053;BME280;55230;42.602;23.470;2022-08-03T09:45:39;93476.06;;;27.73;36.42
11053;BME280;55230;42.602;23.470;2022-08-03T09:48:22;93701.00;;;29.32;37.38
11053;BME280;55230;42.602;23.470;2022-08-03T09:50:50;93676.66;;;29.08;35.58
11053;BME280;55230;42.602;23.470;2022-08-03T09:53:18;93659.56;;;29.19;36.63
11053;BME280;55230;42.602;23.470;2022-08-03T09:55:55;93492.81;;;28.05;35.86
11053;BME280;55230;42.602;23.470;2022-08-03T09:58:23;93674.59;;;29.16;36.33
11053;BME280;55230;42.602;23.470;2022-08-03T10:00:55;93558.06;;;28.46;37.12
11053;BME280;55230;42.602;23.470;2022-08-03T10:03:24;93650.75;;;28.43;36.85
11053;BME280;55230;42.602;23.470;2022-08-03T10:05:51;93604.09;;;27.94;36.83
11053;BME280;55230;42.602;23.470;2022-08-03T10:08:19;93650.25;;;28.22;39.04
11053;BME280;55230;42.602;23.470;2022-08-03T10:10:46;93617.88;;;27.19;38.74
11053;BME280;55230;42.602;23.470;2022-08-03T10:13:17;93678.00;;;28.07;37.99
11053;BME280;55230;42.602;23.470;2022-08-03T10:15:44;93636.03;;;27.80;37.77
11053;BME280;55230;42.602;23.470;2022-08-03T10:18:12;93615.00;;;27.62;36.97
11053;BME280;55230;42.602;23.470;2022-08-03T10:20:42;93665.19;;;28.57;38.10
11053;BME280;55230;42.602;23.470;2022-08-03T10:23:11;93584.63;;;28.24;36.64
11053;BME280;55230;42.602;23.470;2022-08-03T10:25:40;93594.91;;;28.39;36.71
11053;BME280;55230;42.602;23.470;2022-08-03T10:28:12;93695.19;;;28.20;37.56
11053;BME280;55230;42.602;23.470;2022-08-03T10:30:44;93574.34;;;27.72;37.11
11053;BME280;55230;42.602;23.470;2022-08-03T10:33:17;93435.53;;;26.78;37.27
11053;BME280;55230;42.602;23.470;2022-08-03T10:35:46;93585.47;;;27.42;38.00
11053;BME280;55230;42.602;23.470;2022-08-03T10:38:17;93625.53;;;27.71;38.80
11053;BME280;55230;42.602;23.470;2022-08-03T10:40:45;93637.91;;;27.78;38.84
11053;BME280;55230;42.602;23.470;2022-08-03T10:43:20;93646.59;;;27.74;39.37
11053;BME280;55230;42.602;23.470;2022-08-03T10:45:50;93558.66;;;27.60;38.30
11053;BME280;55230;42.602;23.470;2022-08-03T10:48:17;93534.41;;;27.75;39.39
11053;BME280;55230;42.602;23.470;2022-08-03T10:50:45;93432.19;;;27.09;37.12
11053;BME280;55230;42.602;23.470;2022-08-03T10:53:14;93639.25;;;28.69;37.83
11053;BME280;55230;42.602;23.470;2022-08-03T10:55:42;93554.63;;;28.30;36.57
11053;BME280;55230;42.602;23.470;2022-08-03T10:58:47;93590.81;;;28.55;37.72
11053;BME280;55230;42.602;23.470;2022-08-03T11:01:17;93296.78;;;26.66;36.71
11053;BME280;55230;42.602;23.470;2022-08-03T11:04:16;93628.34;;;29.03;36.90
11053;BME280;55230;42.602;23.470;2022-08-03T11:06:44;93629.75;;;28.80;36.79
11053;BME280;55230;42.602;23.470;2022-08-03T11:09:16;93636.00;;;28.40;37.34
11053;BME280;55230;42.602;23.470;2022-08-03T11:11:45;93571.59;;;27.42;39.11
11053;BME280;55230;42.602;23.470;2022-08-03T11:14:15;93652.31;;;27.69;39.35
11053;BME280;55230;42.602;23.470;2022-08-03T11:16:45;93642.63;;;27.17;40.59
11053;BME280;55230;42.602;23.470;2022-08-03T11:19:15;93637.91;;;27.55;39.81
11053;BME280;55230;42.602;23.470;2022-08-03T11:21:57;93644.75;;;27.54;40.38
11053;BME280;55230;42.602;23.470;2022-08-03T11:24:57;93617.19;;;27.56;39.97
11053;BME280;55230;42.602;23.470;2022-08-03T11:27:26;93586.88;;;27.20;40.82
11053;BME280;55230;42.602;23.470;2022-08-03T11:29:55;93595.41;;;27.83;39.86
11053;BME280;55230;42.602;23.470;2022-08-03T11:32:53;93622.38;;;27.90;39.57
11053;BME280;55230;42.602;23.470;2022-08-03T11:35:22;93618.88;;;28.67;39.37
11053;BME280;55230;42.602;23.470;2022-08-03T11:38:16;93582.84;;;28.99;36.63
11053;BME280;55230;42.602;23.470;2022-08-03T11:40:50;93608.03;;;28.93;36.82
11053;BME280;55230;42.602;23.470;2022-08-03T11:43:43;93608.81;;;28.86;36.76
11053;BME280;55230;42.602;23.470;2022-08-03T11:46:12;93613.13;;;29.12;37.09
11053;BME280;55230;42.602;23.470;2022-08-03T11:48:44;93593.03;;;29.53;36.21
11053;BME280;55230;42.602;23.470;2022-08-03T11:51:19;93602.34;;;30.14;36.05
11053;BME280;55230;42.602;23.470;2022-08-03T11:53:51;93619.69;;;29.81;35.35
11053;BME280;55230;42.602;23.470;2022-08-03T11:56:18;93599.00;;;29.74;36.08
11053;BME280;55230;42.602;23.470;2022-08-03T11:58:46;93549.78;;;29.18;36.15
11053;BME280;55230;42.602;23.470;2022-08-03T12:01:14;93560.69;;;28.84;36.19
11053;BME280;55230;42.602;23.470;2022-08-03T12:03:43;93585.19;;;28.70;36.60
11053;BME280;55230;42.602;23.470;2022-08-03T12:06:11;93598.25;;;28.37;36.76
11053;BME280;55230;42.602;23.470;2022-08-03T12:08:39;93025.34;;;24.19;37.52
11053;BME280;55230;42.602;23.470;2022-08-03T12:11:08;93631.44;;;27.90;39.08
11053;BME280;55230;42.602;23.470;2022-08-03T12:13:39;93231.06;;;25.24;39.19
11053;BME280;55230;42.602;23.470;2022-08-03T12:16:06;93551.97;;;27.25;38.95
11053;BME280;55230;42.602;23.470;2022-08-03T12:18:34;93492.34;;;26.94;39.37
11053;BME280;55230;42.602;23.470;2022-08-03T12:21:07;93600.94;;;27.60;39.17
11053;BME280;55230;42.602;23.470;2022-08-03T12:23:35;93608.09;;;27.10;39.71
11053;BME280;55230;42.602;23.470;2022-08-03T12:26:03;93540.66;;;26.70;40.98
11053;BME280;55230;42.602;23.470;2022-08-03T12:28:30;93187.41;;;24.28;40.96
11053;BME280;55230;42.602;23.470;2022-08-03T12:31:01;93520.69;;;26.57;40.68
11053;BME280;55230;42.602;23.470;2022-08-03T12:33:28;93593.88;;;27.06;39.89
11053;BME280;55230;42.602;23.470;2022-08-03T12:36:05;93594.81;;;27.24;41.07
11053;BME280;55230;42.602;23.470;2022-08-03T12:38:34;93587.44;;;27.94;39.09
11053;BME280;55230;42.602;23.470;2022-08-03T12:41:04;93110.97;;;24.29;38.39
11053;BME280;55230;42.602;23.470;2022-08-03T12:43:31;93338.09;;;26.94;39.52
11053;BME280;55230;42.602;23.470;2022-08-03T12:46:11;93589.34;;;28.54;36.84
11053;BME280;55230;42.602;23.470;2022-08-03T12:49:10;93542.44;;;29.05;35.18
11053;BME280;55230;42.602;23.470;2022-08-03T12:51:57;93179.25;;;25.97;34.88
11053;BME280;55230;42.602;23.470;2022-08-03T12:54:27;93581.44;;;29.72;34.18
11053;BME280;55230;42.602;23.470;2022-08-03T12:56:57;93572.56;;;30.07;34.36
11053;BME280;55230;42.602;23.470;2022-08-03T12:59:25;93486.16;;;30.05;34.81
11053;BME280;55230;42.602;23.470;2022-08-03T13:01:52;93456.53;;;30.17;34.56
11053;BME280;55230;42.602;23.470;2022-08-03T13:04:25;93528.06;;;30.85;34.04
11053;BME280;55230;42.602;23.470;2022-08-03T13:06:58;93568.78;;;31.34;34.49